Time;durP1;ratioP1;P1;durP2;ratioP2;P2;SDS_P1;SDS_P2;PMS_P1;PMS_P2;Temp;Humidity;BMP_temperature;BMP_pressure;BME280_temperature;BME280_humidity;BME280_pressure;Samples;Min_cycle;Max_cycle;Signal;HPM_P1;HPM_P2
2023/09/14 00:00:34;;;;;;;2.20;1.55;;;26.80;52.30;;;;;;5020007;28;20022;-64
2023/09/14 00:03:00;;;;;;;1.67;1.33;;;26.90;52.40;;;;;;5018516;28;20026;-65
2023/09/14 00:05:26;;;;;;;1.90;1.50;;;26.80;52.30;;;;;;5019225;28;20037;-64
2023/09/14 00:07:51;;;;;;;1.88;1.50;;;26.80;52.30;;;;;;5024567;28;20084;-67
2023/09/14 00:10:17;;;;;;;1.80;1.40;;;26.80;52.40;;;;;;5018994;28;20695;-67
2023/09/14 00:12:43;;;;;;;1.75;1.40;;;26.80;52.40;;;;;;5019499;28;20029;-67
2023/09/14 00:15:08;;;;;;;2.75;1.65;;;26.80;52.40;;;;;;5021990;28;20418;-69
2023/09/14 00:17:34;;;;;;;1.92;1.48;;;26.80;52.40;;;;;;5022816;28;20108;-67
2023/09/14 00:20:00;;;;;;;1.75;1.45;;;26.80;52.50;;;;;;5021853;28;20095;-68
2023/09/14 00:22:26;;;;;;;1.90;1.40;;;26.80;52.50;;;;;;5021442;28;20527;-67
2023/09/14 00:24:52;;;;;;;2.22;1.55;;;26.80;52.50;;;;;;5022151;28;20039;-68
2023/09/14 00:27:18;;;;;;;2.20;1.50;;;26.80;53.10;;;;;;5020768;28;20398;-67
2023/09/14 00:29:46;;;;;;;2.20;1.63;;;26.80;52.60;;;;;;5021714;28;20037;-67
2023/09/14 00:32:12;;;;;;;2.17;1.60;;;26.70;52.50;;;;;;5021970;28;20025;-69
2023/09/14 00:34:37;;;;;;;2.17;1.50;;;26.70;52.50;;;;;;5021338;28;20472;-67
2023/09/14 00:37:04;;;;;;;1.77;1.58;;;26.70;52.50;;;;;;5021253;28;20030;-67
2023/09/14 00:39:30;;;;;;;2.80;1.70;;;26.70;52.60;;;;;;5021735;28;20030;-69
2023/09/14 00:41:56;;;;;;;2.05;1.40;;;26.70;52.60;;;;;;5020256;28;20639;-68
2023/09/14 00:44:21;;;;;;;2.15;1.50;;;26.70;52.60;;;;;;5021980;28;20034;-67
2023/09/14 00:46:47;;;;;;;1.95;1.60;;;26.70;52.60;;;;;;5021243;28;20496;-70
2023/09/14 00:49:13;;;;;;;1.95;1.50;;;26.70;52.60;;;;;;5020938;28;20036;-70
2023/09/14 00:51:39;;;;;;;1.73;1.40;;;26.70;52.60;;;;;;5023899;28;20034;-70
2023/09/14 00:54:05;;;;;;;1.70;1.35;;;26.70;52.60;;;;;;5020644;28;20026;-70
2023/09/14 00:56:31;;;;;;;2.20;1.42;;;26.70;52.60;;;;;;5020854;28;20433;-67
2023/09/14 00:58:57;;;;;;;1.67;1.40;;;26.70;52.70;;;;;;5021072;28;20036;-67
2023/09/14 01:01:23;;;;;;;2.00;1.48;;;26.70;52.70;;;;;;5019642;28;20492;-68
2023/09/14 01:03:49;;;;;;;1.98;1.38;;;26.60;52.70;;;;;;5020379;28;20050;-68
2023/09/14 01:06:15;;;;;;;1.90;1.40;;;26.70;52.80;;;;;;5020597;28;20579;-68
2023/09/14 01:08:40;;;;;;;1.77;1.38;;;26.70;52.80;;;;;;5020888;28;20034;-67
2023/09/14 01:11:07;;;;;;;2.25;1.58;;;26.60;52.70;;;;;;5019826;28;20504;-68
2023/09/14 01:13:59;;;;;;;2.20;1.50;;;26.60;52.70;;;;;;5019799;28;20062;-68
2023/09/14 01:16:38;;;;;;;2.05;1.40;;;26.70;52.80;;;;;;5020392;28;20052;-70
2023/09/14 01:19:29;;;;;;;1.92;1.50;;;26.60;52.80;;;;;;5018688;28;20022;-70
2023/09/14 01:22:14;;;;;;;2.20;1.40;;;26.60;52.80;;;;;;5020268;28;20043;-70
2023/09/14 01:24:57;;;;;;;1.73;1.35;;;26.60;52.80;;;;;;5020521;28;20026;-70
2023/09/14 01:27:23;;;;;;;2.08;1.42;;;26.60;52.80;;;;;;5021597;28;20022;-70
2023/09/14 01:29:49;;;;;;;1.65;1.30;;;26.60;52.80;;;;;;5020917;28;20416;-69
2023/09/14 01:32:15;;;;;;;1.77;1.40;;;26.60;52.80;;;;;;5022156;28;20063;-70
2023/09/14 01:34:41;;;;;;;2.15;1.50;;;26.60;52.80;;;;;;5019133;28;20030;-69
2023/09/14 01:37:07;;;;;;;2.13;1.48;;;26.60;52.80;;;;;;5018762;28;20048;-70
2023/09/14 01:39:34;;;;;;;1.52;1.30;;;26.60;52.90;;;;;;5022741;28;20033;-70
2023/09/14 01:42:01;;;;;;;1.77;1.38;;;26.50;52.80;;;;;;5020147;28;20026;-69
2023/09/14 01:44:27;;;;;;;1.98;1.35;;;26.50;53.40;;;;;;5020588;28;20481;-69
2023/09/14 01:46:54;;;;;;;2.00;1.50;;;26.60;52.90;;;;;;5020229;28;20385;-70
2023/09/14 01:49:20;;;;;;;2.15;1.48;;;26.50;52.90;;;;;;5020657;28;20041;-69
2023/09/14 01:51:45;;;;;;;1.52;1.30;;;26.50;52.90;;;;;;5018593;28;20033;-69
2023/09/14 01:54:11;;;;;;;1.80;1.40;;;26.50;52.90;;;;;;5020467;28;20525;-69
2023/09/14 01:56:37;;;;;;;1.55;1.25;;;26.50;52.90;;;;;;5018393;28;20034;-65
2023/09/14 01:59:03;;;;;;;1.33;1.15;;;26.50;52.90;;;;;;5019336;28;20029;-65
2023/09/14 02:01:28;;;;;;;1.80;1.40;;;26.50;52.90;;;;;;5020244;28;20339;-65
2023/09/14 02:03:54;;;;;;;2.00;1.60;;;26.50;52.90;;;;;;5020191;28;20087;-65
2023/09/14 02:06:20;;;;;;;2.17;1.42;;;26.50;52.90;;;;;;5019839;28;20029;-70
2023/09/14 02:08:46;;;;;;;1.80;1.40;;;26.50;53.00;;;;;;5019930;28;20030;-70
2023/09/14 02:11:13;;;;;;;1.77;1.40;;;26.50;52.90;;;;;;5020230;28;20040;-70
2023/09/14 02:13:39;;;;;;;1.70;1.38;;;26.50;52.90;;;;;;5017932;28;20060;-70
2023/09/14 02:16:05;;;;;;;1.90;1.40;;;26.50;53.00;;;;;;5020354;28;20120;-70
2023/09/14 02:18:31;;;;;;;1.88;1.40;;;26.50;53.00;;;;;;5019885;28;20448;-70
2023/09/14 02:20:56;;;;;;;1.90;1.40;;;26.50;53.00;;;;;;5018372;28;20041;-70
2023/09/14 02:23:22;;;;;;;1.95;1.40;;;26.40;52.90;;;;;;5019544;28;20029;-70
2023/09/14 02:25:49;;;;;;;1.90;1.45;;;26.50;53.00;;;;;;5018735;28;20121;-70
2023/09/14 02:28:15;;;;;;;1.88;1.30;;;26.50;53.10;;;;;;5017815;28;20029;-63
2023/09/14 02:30:41;;;;;;;2.75;1.50;;;26.40;53.00;;;;;;5018347;28;20037;-64
2023/09/14 02:33:07;;;;;;;1.60;1.25;;;26.50;53.10;;;;;;5019035;28;20066;-63
2023/09/14 02:35:34;;;;;;;1.88;1.35;;;26.50;53.10;;;;;;5017808;28;20027;-63
2023/09/14 02:37:59;;;;;;;1.80;1.40;;;26.40;53.10;;;;;;5019798;28;20938;-63
2023/09/14 02:40:25;;;;;;;1.73;1.35;;;26.50;53.10;;;;;;5017814;28;20033;-65
2023/09/14 02:42:51;;;;;;;1.63;1.30;;;26.40;53.00;;;;;;5018287;28;20075;-64
2023/09/14 02:45:16;;;;;;;1.90;1.38;;;26.40;53.10;;;;;;5018679;28;20029;-62
2023/09/14 02:47:42;;;;;;;1.83;1.30;;;26.40;53.10;;;;;;5019257;28;20045;-63
2023/09/14 02:50:07;;;;;;;2.25;1.52;;;26.40;53.10;;;;;;5020003;28;20368;-65
2023/09/14 02:52:33;;;;;;;1.75;1.35;;;26.40;53.10;;;;;;5018832;28;20033;-63
2023/09/14 02:54:59;;;;;;;1.83;1.40;;;26.40;53.10;;;;;;5018325;28;20421;-63
2023/09/14 02:57:25;;;;;;;1.60;1.23;;;26.40;53.10;;;;;;5018417;28;20139;-64
2023/09/14 02:59:54;;;;;;;1.95;1.52;;;26.40;53.10;;;;;;5017193;28;20025;-64
2023/09/14 03:02:21;;;;;;;1.65;1.30;;;26.40;53.10;;;;;;5018276;28;20029;-64
2023/09/14 03:04:47;;;;;;;1.70;1.30;;;26.40;53.10;;;;;;5017522;28;20667;-63
2023/09/14 03:07:12;;;;;;;1.63;1.20;;;26.40;53.10;;;;;;5018016;28;20163;-68
2023/09/14 03:09:38;;;;;;;1.77;1.20;;;26.40;53.10;;;;;;5020158;28;20052;-68
2023/09/14 03:12:04;;;;;;;1.92;1.30;;;26.40;53.10;;;;;;5016277;28;20029;-68
2023/09/14 03:14:29;;;;;;;2.13;1.40;;;26.40;53.10;;;;;;5016359;28;20034;-67
2023/09/14 03:16:55;;;;;;;1.67;1.30;;;26.40;53.10;;;;;;5018159;28;20065;-63
2023/09/14 03:19:21;;;;;;;1.67;1.40;;;26.40;53.10;;;;;;5019341;28;20026;-64
2023/09/14 03:21:46;;;;;;;2.03;1.40;;;26.40;53.20;;;;;;5018976;28;20029;-62
2023/09/14 03:24:12;;;;;;;1.80;1.30;;;26.40;53.20;;;;;;5019184;28;20026;-64
2023/09/14 03:26:38;;;;;;;1.85;1.15;;;26.30;53.10;;;;;;5016746;28;20029;-63
2023/09/14 03:29:03;;;;;;;1.83;1.30;;;26.40;53.20;;;;;;5017738;28;20069;-63
2023/09/14 03:31:29;;;;;;;1.65;1.30;;;26.30;53.10;;;;;;5017255;28;20040;-64
2023/09/14 03:33:54;;;;;;;1.55;1.25;;;26.30;53.10;;;;;;5018525;28;20032;-63
2023/09/14 03:36:20;;;;;;;1.75;1.30;;;26.30;53.10;;;;;;5018983;28;20026;-64
2023/09/14 03:38:46;;;;;;;2.08;1.40;;;26.40;53.20;;;;;;5018263;28;20551;-70
2023/09/14 03:41:12;;;;;;;1.80;1.20;;;26.30;53.10;;;;;;5018224;28;20027;-70
2023/09/14 03:43:42;;;;;;;1.30;1.10;;;26.30;53.10;;;;;;5016247;28;20100;-70
2023/09/14 03:46:08;;;;;;;1.48;1.30;;;26.30;53.10;;;;;;5019745;28;20060;-70
2023/09/14 03:48:34;;;;;;;1.77;1.48;;;26.30;53.20;;;;;;5022131;28;20041;-70
2023/09/14 03:51:01;;;;;;;1.65;1.25;;;26.30;53.20;;;;;;5022028;28;20038;-70
2023/09/14 03:53:27;;;;;;;1.75;1.30;;;26.30;53.20;;;;;;5021140;28;20045;-69
2023/09/14 03:55:58;;;;;;;1.95;1.50;;;26.30;53.20;;;;;;5020696;28;20092;-70
2023/09/14 03:58:23;;;;;;;1.55;1.23;;;26.30;53.20;;;;;;5021266;28;20017;-70
2023/09/14 04:00:49;;;;;;;1.70;1.33;;;26.30;53.20;;;;;;5022180;28;20539;-70
2023/09/14 04:03:18;;;;;;;1.67;1.20;;;26.30;53.20;;;;;;5021701;28;20485;-70
2023/09/14 04:05:45;;;;;;;1.52;1.30;;;26.30;53.20;;;;;;5022479;28;20399;-70
2023/09/14 04:08:10;;;;;;;1.70;1.30;;;26.30;53.30;;;;;;5022406;28;20052;-70
2023/09/14 04:10:37;;;;;;;2.13;1.50;;;26.30;53.30;;;;;;5020483;28;20171;-70
2023/09/14 04:13:29;;;;;;;1.70;1.30;;;26.30;53.30;;;;;;5021339;28;20032;-70
2023/09/14 04:15:56;;;;;;;1.60;1.30;;;26.30;53.30;;;;;;5021657;28;20436;-69
2023/09/14 04:18:22;;;;;;;1.67;1.27;;;26.30;53.30;;;;;;5021965;28;20159;-70
2023/09/14 04:20:49;;;;;;;1.80;1.40;;;26.30;53.30;;;;;;5023207;28;20029;-69
2023/09/14 04:23:15;;;;;;;1.65;1.20;;;26.30;53.30;;;;;;5021564;28;20507;-69
2023/09/14 04:25:47;;;;;;;1.73;1.38;;;26.30;53.30;;;;;;5022532;28;20034;-70
2023/09/14 04:28:13;;;;;;;2.60;1.40;;;26.30;53.30;;;;;;5019851;28;20033;-65
2023/09/14 04:30:44;;;;;;;1.63;1.20;;;26.30;53.30;;;;;;5021676;28;20037;-62
2023/09/14 04:33:13;;;;;;;1.73;1.30;;;26.30;53.30;;;;;;5020588;28;20507;-66
2023/09/14 04:35:39;;;;;;;1.40;1.20;;;26.30;53.30;;;;;;5020747;28;20060;-64
2023/09/14 04:38:06;;;;;;;1.92;1.17;;;26.20;53.30;;;;;;5027772;28;20044;-64
2023/09/14 04:40:34;;;;;;;1.90;1.30;;;26.30;53.30;;;;;;5019830;28;20167;-64
2023/09/14 04:43:00;;;;;;;1.33;1.20;;;26.30;53.30;;;;;;5021003;28;20474;-64
2023/09/14 04:45:25;;;;;;;1.42;1.20;;;26.30;53.30;;;;;;5019482;28;20032;-64
2023/09/14 04:47:51;;;;;;;1.45;1.23;;;26.30;53.30;;;;;;5020640;28;20484;-69
2023/09/14 04:50:16;;;;;;;1.70;1.30;;;26.30;53.30;;;;;;5020495;28;20034;-71
2023/09/14 04:52:42;;;;;;;1.80;1.30;;;26.30;53.40;;;;;;5022209;28;20476;-71
2023/09/14 04:55:08;;;;;;;1.85;1.25;;;26.30;53.40;;;;;;5019509;28;20426;-70
2023/09/14 04:57:38;;;;;;;1.33;1.23;;;26.20;53.30;;;;;;5021976;28;20021;-71
2023/09/14 05:00:04;;;;;;;1.67;1.30;;;26.20;53.30;;;;;;5020153;28;20052;-70
2023/09/14 05:02:30;;;;;;;1.75;1.40;;;26.20;53.30;;;;;;5020048;28;20030;-70
2023/09/14 05:04:56;;;;;;;1.42;1.20;;;26.20;53.80;;;;;;5019326;28;20033;-70
2023/09/14 05:07:21;;;;;;;1.50;1.20;;;26.20;53.30;;;;;;5018812;28;20018;-71
2023/09/14 05:09:47;;;;;;;2.03;1.30;;;26.20;53.30;;;;;;5011832;28;20022;-71
2023/09/14 05:12:13;;;;;;;1.77;1.33;;;26.20;53.30;;;;;;5020900;28;20065;-70
2023/09/14 05:14:39;;;;;;;1.90;1.30;;;26.20;53.30;;;;;;5019663;28;20029;-70
2023/09/14 05:17:05;;;;;;;1.50;1.30;;;26.20;53.30;;;;;;5021035;28;20030;-70
2023/09/14 05:19:30;;;;;;;1.70;1.40;;;26.20;53.40;;;;;;5020838;28;20037;-70
2023/09/14 05:21:56;;;;;;;1.92;1.48;;;26.20;53.30;;;;;;5018671;28;20049;-70
2023/09/14 05:24:21;;;;;;;1.20;1.10;;;26.20;53.40;;;;;;5021326;28;20029;-71
2023/09/14 05:26:51;;;;;;;1.95;1.40;;;26.20;53.40;;;;;;5019459;28;20457;-66
2023/09/14 05:29:17;;;;;;;2.38;1.70;;;26.20;53.40;;;;;;5019592;28;20393;-65
2023/09/14 05:31:42;;;;;;;3.55;2.85;;;26.20;53.40;;;;;;5019224;28;20029;-65
2023/09/14 05:34:08;;;;;;;4.57;3.80;;;26.20;52.70;;;;;;5019644;28;20030;-65
2023/09/14 05:36:33;;;;;;;4.20;3.40;;;26.20;52.20;;;;;;5021641;28;20438;-68
2023/09/14 05:38:59;;;;;;;4.50;3.83;;;26.20;52.00;;;;;;5018540;28;20076;-64
2023/09/14 05:41:24;;;;;;;4.63;4.13;;;26.20;51.70;;;;;;5020670;28;20115;-62
2023/09/14 05:43:50;;;;;;;5.78;4.93;;;26.20;51.70;;;;;;5020877;28;20400;-64
2023/09/14 05:46:16;;;;;;;4.30;3.70;;;26.20;51.30;;;;;;5018416;28;20026;-63
2023/09/14 05:48:42;;;;;;;4.00;3.40;;;26.10;52.00;;;;;;5019674;28;20109;-63
2023/09/14 05:51:08;;;;;;;5.15;4.35;;;26.10;51.50;;;;;;5020705;28;20026;-63
2023/09/14 05:53:34;;;;;;;6.40;5.45;;;26.10;51.30;;;;;;5019438;28;20588;-63
2023/09/14 05:56:00;;;;;;;6.43;5.82;;;26.10;50.90;;;;;;5020711;28;20370;-63
2023/09/14 05:58:30;;;;;;;5.70;5.10;;;26.10;50.70;;;;;;5020232;28;20075;-69
2023/09/14 06:00:56;;;;;;;5.55;4.78;;;26.10;50.70;;;;;;5019693;28;20052;-69
2023/09/14 06:03:22;;;;;;;6.55;5.25;;;26.00;50.70;;;;;;5019673;28;20063;-69
2023/09/14 06:05:48;;;;;;;5.38;4.53;;;26.10;50.70;;;;;;5010537;28;20045;-69
2023/09/14 06:08:13;;;;;;;4.93;4.43;;;26.10;50.80;;;;;;5018950;28;20049;-69
2023/09/14 06:10:39;;;;;;;5.10;4.47;;;26.10;50.80;;;;;;5019502;28;20079;-69
2023/09/14 06:13:04;;;;;;;5.85;5.15;;;26.10;50.80;;;;;;5019155;28;20037;-69
2023/09/14 06:15:31;;;;;;;5.63;4.82;;;26.10;50.70;;;;;;5019108;28;20429;-69
2023/09/14 06:17:56;;;;;;;5.68;4.50;;;26.10;50.80;;;;;;5017429;28;20072;-68
2023/09/14 06:20:22;;;;;;;5.53;4.38;;;26.00;50.70;;;;;;5018780;28;20094;-70
2023/09/14 06:22:47;;;;;;;6.75;5.40;;;26.00;50.60;;;;;;5019709;28;20062;-68
2023/09/14 06:25:13;;;;;;;6.88;5.55;;;26.00;50.40;;;;;;5019467;28;20039;-68
2023/09/14 06:27:39;;;;;;;5.72;4.60;;;26.00;50.40;;;;;;5020365;28;20025;-67
2023/09/14 06:30:06;;;;;;;5.57;4.97;;;26.00;50.60;;;;;;5020002;28;20072;-68
2023/09/14 06:32:31;;;;;;;5.88;4.55;;;26.00;50.60;;;;;;5020783;28;20109;-68
2023/09/14 06:34:57;;;;;;;5.30;4.55;;;26.00;50.60;;;;;;5019853;28;20425;-68
2023/09/14 06:37:23;;;;;;;5.40;4.60;;;26.00;50.60;;;;;;5018818;28;20044;-65
2023/09/14 06:39:48;;;;;;;5.68;4.68;;;26.00;50.60;;;;;;5017649;28;20037;-65
2023/09/14 06:42:14;;;;;;;5.50;4.90;;;26.00;50.50;;;;;;5019958;28;20026;-65
2023/09/14 06:44:39;;;;;;;5.40;4.90;;;26.00;50.50;;;;;;5018730;28;20379;-65
2023/09/14 06:47:05;;;;;;;5.15;4.65;;;26.00;50.40;;;;;;5019272;28;20382;-65
2023/09/14 06:49:31;;;;;;;5.57;4.55;;;26.00;50.50;;;;;;5020092;28;20033;-65
2023/09/14 06:51:56;;;;;;;5.30;4.60;;;26.00;50.50;;;;;;5019884;28;20025;-65
2023/09/14 06:54:22;;;;;;;5.28;4.32;;;26.00;50.50;;;;;;5020268;28;20025;-64
2023/09/14 06:56:47;;;;;;;5.90;4.10;;;26.00;50.60;;;;;;5008855;28;20625;-65
2023/09/14 06:59:14;;;;;;;5.65;3.97;;;26.00;50.70;;;;;;5018406;28;20144;-65
2023/09/14 07:01:40;;;;;;;4.68;3.47;;;26.00;50.70;;;;;;5017567;28;20022;-65
2023/09/14 07:04:05;;;;;;;3.97;3.15;;;26.00;50.80;;;;;;5020113;28;20037;-65
2023/09/14 07:06:33;;;;;;;3.78;3.30;;;26.00;50.80;;;;;;5019055;28;20033;-65
2023/09/14 07:08:59;;;;;;;4.93;3.67;;;25.90;50.80;;;;;;5019213;28;20033;-67
2023/09/14 07:11:25;;;;;;;4.00;3.15;;;25.90;50.80;;;;;;5017568;28;20037;-67
2023/09/14 07:13:51;;;;;;;4.60;3.20;;;25.90;50.80;;;;;;5017493;28;20029;-68
2023/09/14 07:16:18;;;;;;;3.90;3.50;;;25.90;50.80;;;;;;5019798;28;20381;-67
2023/09/14 07:18:44;;;;;;;4.78;3.25;;;26.00;50.90;;;;;;5020790;28;20017;-66
2023/09/14 07:21:09;;;;;;;3.67;3.00;;;26.00;50.80;;;;;;5019268;28;20025;-67
2023/09/14 07:23:35;;;;;;;4.78;3.38;;;26.00;51.20;;;;;;5021427;28;20088;-67
2023/09/14 07:26:04;;;;;;;5.40;3.00;;;26.00;51.10;;;;;;5025270;28;20029;-67
2023/09/14 07:28:29;;;;;;;4.00;3.15;;;26.00;51.10;;;;;;5024680;28;20796;-68
2023/09/14 07:30:55;;;;;;;3.53;2.95;;;26.00;51.00;;;;;;5024904;28;20040;-67
2023/09/14 07:33:22;;;;;;;3.55;3.00;;;26.00;51.00;;;;;;5025210;28;20033;-68
2023/09/14 07:35:48;;;;;;;3.58;2.80;;;26.00;51.00;;;;;;5024697;28;20032;-67
2023/09/14 07:38:13;;;;;;;3.60;2.90;;;26.00;51.00;;;;;;5024253;28;20056;-68
2023/09/14 07:40:40;;;;;;;3.20;2.88;;;26.00;51.00;;;;;;5025195;28;20024;-68
2023/09/14 07:43:06;;;;;;;3.83;2.85;;;26.00;50.90;;;;;;5025637;28;20367;-67
2023/09/14 07:45:33;;;;;;;3.13;2.70;;;26.10;50.90;;;;;;5023558;28;20040;-67
2023/09/14 07:48:01;;;;;;;3.50;2.88;;;26.10;50.90;;;;;;5024672;28;20401;-67
2023/09/14 07:50:26;;;;;;;3.65;2.90;;;26.10;50.90;;;;;;5023950;28;20362;-68
2023/09/14 07:52:52;;;;;;;3.13;2.40;;;26.10;50.90;;;;;;5024917;28;20040;-68
2023/09/14 07:55:18;;;;;;;2.95;2.45;;;26.10;50.90;;;;;;5024502;28;20021;-67
2023/09/14 07:57:44;;;;;;;3.75;2.65;;;26.00;50.80;;;;;;5023954;28;20025;-67
2023/09/14 08:00:10;;;;;;;3.28;2.65;;;26.10;50.80;;;;;;5024280;28;20112;-68
2023/09/14 08:02:35;;;;;;;3.65;2.67;;;26.10;50.80;;;;;;5024476;28;20041;-67
2023/09/14 08:05:01;;;;;;;3.22;2.28;;;26.10;50.80;;;;;;5024629;28;20472;-68
2023/09/14 08:07:27;;;;;;;3.20;2.63;;;26.10;50.70;;;;;;5024410;28;20033;-67
2023/09/14 08:09:52;;;;;;;3.42;2.97;;;26.10;50.90;;;;;;5026838;28;20053;-67
2023/09/14 08:12:18;;;;;;;3.65;3.00;;;26.10;50.80;;;;;;5024728;28;20152;-67
2023/09/14 08:14:47;;;;;;;3.83;2.40;;;26.10;50.80;;;;;;5024191;28;20076;-68
2023/09/14 08:17:12;;;;;;;3.67;2.67;;;26.20;50.80;;;;;;5026218;28;20500;-64
2023/09/14 08:19:38;;;;;;;3.60;2.70;;;26.20;50.80;;;;;;5024863;28;20033;-65
2023/09/14 08:22:04;;;;;;;3.13;2.65;;;26.20;50.80;;;;;;5025681;28;20140;-65
2023/09/14 08:24:29;;;;;;;3.15;2.40;;;26.20;50.80;;;;;;5024048;28;20053;-65
2023/09/14 08:26:59;;;;;;;3.20;2.50;;;26.20;50.80;;;;;;5025922;28;20112;-66
2023/09/14 08:29:25;;;;;;;;;;;26.20;50.80;;;;;;5023795;28;20054;-65
2023/09/14 08:31:51;;;;;;;2.80;2.20;;;26.20;50.80;;;;;;5022947;28;19909;-64
2023/09/14 08:34:16;;;;;;;2.80;2.10;;;26.30;51.00;;;;;;5021448;28;20041;-65
2023/09/14 08:36:42;;;;;;;2.63;2.00;;;26.30;51.00;;;;;;5020992;28;20022;-64
2023/09/14 08:39:08;;;;;;;2.60;2.17;;;26.30;51.00;;;;;;5018863;28;20102;-65
2023/09/14 08:41:37;;;;;;;2.72;2.10;;;26.30;51.10;;;;;;5020635;28;20432;-65
2023/09/14 08:44:04;;;;;;;2.83;2.22;;;26.30;51.10;;;;;;5018757;28;20038;-66
2023/09/14 08:46:32;;;;;;;2.92;2.35;;;26.30;51.20;;;;;;5022601;28;20037;-65
2023/09/14 08:49:00;;;;;;;2.60;2.22;;;26.30;51.20;;;;;;5020987;28;20045;-65
2023/09/14 08:51:28;;;;;;;3.03;2.22;;;26.30;51.20;;;;;;5022856;28;20080;-65
2023/09/14 08:53:55;;;;;;;2.80;2.25;;;26.30;51.20;;;;;;5020692;28;20472;-65
2023/09/14 08:56:22;;;;;;;2.67;2.00;;;26.30;51.20;;;;;;5021859;28;20109;-66
2023/09/14 08:58:48;;;;;;;2.53;1.90;;;26.30;51.20;;;;;;5023992;28;20429;-68
2023/09/14 09:01:17;;;;;;;2.30;2.00;;;26.30;51.20;;;;;;5020411;28;20441;-68
2023/09/14 09:03:43;;;;;;;3.05;2.20;;;26.30;51.80;;;;;;5020376;28;20044;-68
2023/09/14 09:06:09;;;;;;;2.80;2.33;;;26.30;51.20;;;;;;5018067;28;20033;-68
2023/09/14 09:08:36;;;;;;;3.22;2.40;;;26.30;51.20;;;;;;5020822;28;20430;-64
2023/09/14 09:11:03;;;;;;;2.88;2.35;;;26.40;51.20;;;;;;5021536;28;20228;-65
2023/09/14 09:13:40;;;;;;;2.55;2.17;;;26.40;51.30;;;;;;5021101;28;20029;-65
2023/09/14 09:16:05;;;;;;;2.85;2.15;;;26.40;51.30;;;;;;5019828;28;20494;-65
2023/09/14 09:18:31;;;;;;;2.60;2.25;;;26.40;51.30;;;;;;5021104;28;20022;-65
2023/09/14 09:21:05;;;;;;;2.83;2.08;;;26.40;51.30;;;;;;5020703;28;20022;-65
2023/09/14 09:23:32;;;;;;;2.65;2.00;;;26.40;51.20;;;;;;5019708;28;20049;-64
2023/09/14 09:25:58;;;;;;;2.78;2.17;;;26.40;51.20;;;;;;5020119;28;20436;-65
2023/09/14 09:28:30;;;;;;;2.80;2.30;;;26.50;51.20;;;;;;5021615;28;20029;-65
2023/09/14 09:30:56;;;;;;;3.20;2.35;;;26.50;51.20;;;;;;5019640;28;20029;-64
2023/09/14 09:33:35;;;;;;;2.90;2.20;;;26.50;51.20;;;;;;5019440;28;20108;-65
2023/09/14 09:36:12;;;;;;;;;;;26.50;51.20;;;;;;5017942;28;20029;-65
2023/09/14 09:38:38;;;;;;;3.05;2.47;;;26.50;51.10;;;;;;5019130;28;19909;-65
2023/09/14 09:41:09;;;;;;;2.60;2.10;;;26.50;51.10;;;;;;5021400;28;20022;-66
2023/09/14 09:43:35;;;;;;;3.10;2.20;;;26.50;51.10;;;;;;5018508;28;20026;-65
2023/09/14 09:46:01;;;;;;;2.58;2.25;;;26.50;51.10;;;;;;5018622;28;20038;-66
2023/09/14 09:48:28;;;;;;;2.70;2.30;;;26.50;51.10;;;;;;5021430;28;20132;-65
2023/09/14 09:50:57;;;;;;;2.53;2.20;;;26.50;51.10;;;;;;5020999;28;20108;-64
2023/09/14 09:53:23;;;;;;;2.67;2.10;;;26.50;51.10;;;;;;5018444;28;20520;-65
2023/09/14 09:55:50;;;;;;;2.85;2.35;;;26.50;51.10;;;;;;5020273;28;20029;-65
2023/09/14 09:58:17;;;;;;;2.78;2.17;;;26.50;51.20;;;;;;5020243;28;20545;-65
2023/09/14 10:00:43;;;;;;;2.60;2.15;;;26.60;51.20;;;;;;5019744;28;20133;-66
2023/09/14 10:03:09;;;;;;;3.78;2.28;;;26.60;51.20;;;;;;5019608;28;20041;-65
2023/09/14 10:05:39;;;;;;;2.65;2.20;;;26.60;51.20;;;;;;5019717;28;20057;-65
2023/09/14 10:08:12;;;;;;;2.88;2.05;;;26.60;51.20;;;;;;5020759;28;20022;-67
2023/09/14 10:10:38;;;;;;;2.45;1.92;;;26.60;51.20;;;;;;5019015;28;20060;-68
2023/09/14 10:13:05;;;;;;;3.25;2.13;;;26.60;51.30;;;;;;5019150;28;20477;-67
2023/09/14 10:15:32;;;;;;;2.47;1.90;;;26.60;51.20;;;;;;5020245;28;20032;-68
2023/09/14 10:17:58;;;;;;;2.53;2.13;;;26.60;51.20;;;;;;5020113;28;20077;-65
2023/09/14 10:20:25;;;;;;;2.30;1.98;;;26.60;51.20;;;;;;5016717;28;20030;-65
2023/09/14 10:22:51;;;;;;;2.40;1.90;;;26.60;51.20;;;;;;5020950;28;20377;-64
2023/09/14 10:25:18;;;;;;;2.55;1.90;;;26.60;51.10;;;;;;5018901;28;20100;-65
2023/09/14 10:27:44;;;;;;;2.95;2.30;;;26.60;51.10;;;;;;5019051;28;20109;-65
2023/09/14 10:30:20;;;;;;;2.67;2.10;;;26.60;51.10;;;;;;5019626;28;20657;-65
2023/09/14 10:32:52;;;;;;;2.25;1.88;;;26.60;51.10;;;;;;5018730;28;20026;-65
2023/09/14 10:35:18;;;;;;;2.45;2.10;;;26.60;51.10;;;;;;5020070;28;20025;-65
2023/09/14 10:37:45;;;;;;;2.30;1.80;;;26.60;51.10;;;;;;5018299;28;20036;-67
2023/09/14 10:40:12;;;;;;;2.22;1.88;;;26.60;51.10;;;;;;5017946;28;20881;-68
2023/09/14 10:42:41;;;;;;;2.70;2.10;;;26.60;51.10;;;;;;5018439;28;20021;-68
2023/09/14 10:45:08;;;;;;;2.53;2.10;;;26.60;51.10;;;;;;5018149;28;20025;-68
2023/09/14 10:47:37;;;;;;;2.55;1.98;;;26.60;51.10;;;;;;5018770;28;20478;-68
2023/09/14 10:50:07;;;;;;;2.20;1.90;;;26.70;51.20;;;;;;5018258;28;20481;-67
2023/09/14 10:52:33;;;;;;;2.60;2.10;;;26.70;51.20;;;;;;5014496;28;20187;-68
2023/09/14 10:54:59;;;;;;;3.25;2.10;;;26.60;51.10;;;;;;5019515;28;20492;-67
2023/09/14 10:57:28;;;;;;;2.38;1.90;;;26.70;51.10;;;;;;5019094;28;20097;-68
2023/09/14 10:59:58;;;;;;;2.95;2.10;;;26.70;51.20;;;;;;5019337;28;20062;-68
2023/09/14 11:02:39;;;;;;;2.88;2.28;;;26.70;51.20;;;;;;5018430;28;20035;-68
2023/09/14 11:05:12;;;;;;;2.85;2.10;;;26.70;51.20;;;;;;5018642;28;20034;-68
2023/09/14 11:07:39;;;;;;;2.80;2.13;;;26.70;51.20;;;;;;5020620;28;20067;-68
2023/09/14 11:10:09;;;;;;;2.10;1.70;;;26.60;51.10;;;;;;5017620;28;20030;-67
2023/09/14 11:12:35;;;;;;;2.17;1.80;;;26.70;51.10;;;;;;5021204;28;20044;-67
2023/09/14 11:15:21;;;;;;;1.92;1.70;;;26.70;51.20;;;;;;5022843;28;20030;-67
2023/09/14 11:17:54;;;;;;;2.60;2.00;;;26.70;51.20;;;;;;5024658;28;20029;-67
2023/09/14 11:20:20;;;;;;;2.60;2.03;;;26.70;51.20;;;;;;5025530;28;20030;-68
2023/09/14 11:22:50;;;;;;;2.67;1.88;;;26.70;51.10;;;;;;5023006;28;20025;-67
2023/09/14 11:25:30;;;;;;;2.10;1.70;;;26.70;51.10;;;;;;5025999;28;20466;-68
2023/09/14 11:27:57;;;;;;;2.40;1.90;;;26.70;51.20;;;;;;5012551;28;20025;-68
2023/09/14 11:30:24;;;;;;;2.20;1.83;;;26.70;51.20;;;;;;5020082;28;20084;-67
2023/09/14 11:32:52;;;;;;;2.58;1.80;;;26.70;51.20;;;;;;5017136;28;20057;-67
2023/09/14 11:35:18;;;;;;;2.25;1.63;;;26.70;51.20;;;;;;5020170;28;20029;-67
2023/09/14 11:37:46;;;;;;;2.33;1.90;;;26.70;51.30;;;;;;5019282;28;20432;-67
2023/09/14 11:40:17;;;;;;;2.45;1.85;;;26.70;51.30;;;;;;5019446;28;20080;-68
2023/09/14 11:43:10;;;;;;;2.72;1.83;;;26.70;51.30;;;;;;5020089;28;20447;-68
2023/09/14 11:45:39;;;;;;;2.45;2.00;;;26.70;51.30;;;;;;5020171;28;20126;-67
2023/09/14 11:48:14;;;;;;;2.30;1.70;;;26.80;51.40;;;;;;5021202;28;20065;-67
2023/09/14 11:50:46;;;;;;;2.50;2.00;;;26.70;51.30;;;;;;5019198;28;20045;-68
2023/09/14 11:53:17;;;;;;;3.03;1.90;;;26.80;51.40;;;;;;5020986;28;20025;-68
2023/09/14 11:55:48;;;;;;;2.30;1.80;;;26.80;51.40;;;;;;5016898;28;20029;-67
2023/09/14 11:58:14;;;;;;;2.25;1.80;;;26.80;51.50;;;;;;5016658;28;20015;-67
2023/09/14 12:00:44;;;;;;;2.40;1.80;;;26.80;51.40;;;;;;5018681;28;20503;-68
2023/09/14 12:03:11;;;;;;;2.55;1.95;;;26.80;51.50;;;;;;5019929;28;20026;-67
2023/09/14 12:05:37;;;;;;;2.20;1.80;;;26.80;51.50;;;;;;5018584;28;20113;-67
2023/09/14 12:08:16;;;;;;;2.13;1.80;;;26.80;51.50;;;;;;5021500;28;20125;-68
2023/09/14 12:10:44;;;;;;;2.30;1.73;;;26.80;51.50;;;;;;5017213;28;20528;-68
2023/09/14 12:13:16;;;;;;;2.95;1.90;;;26.80;51.50;;;;;;5022366;28;20034;-68
2023/09/14 12:15:43;;;;;;;2.65;1.80;;;26.80;51.50;;;;;;5020207;28;20485;-68
2023/09/14 12:18:10;;;;;;;2.47;1.75;;;26.80;51.50;;;;;;5021159;28;20462;-68
2023/09/14 12:20:41;;;;;;;2.95;1.90;;;26.80;51.50;;;;;;5022292;28;20045;-68
2023/09/14 12:23:09;;;;;;;2.38;1.95;;;26.80;51.50;;;;;;5019265;28;20519;-68
2023/09/14 12:25:36;;;;;;;2.03;1.60;;;26.80;51.50;;;;;;5021916;28;20026;-68
2023/09/14 12:28:08;;;;;;;2.63;1.80;;;26.80;51.60;;;;;;5020302;28;20025;-65
2023/09/14 12:30:35;;;;;;;2.95;1.90;;;26.90;51.70;;;;;;5021475;28;20034;-65
2023/09/14 12:33:02;;;;;;;2.50;1.77;;;26.90;51.70;;;;;;5023891;28;20037;-65
2023/09/14 12:35:29;;;;;;;2.85;1.75;;;26.90;51.80;;;;;;5022825;28;20045;-64
2023/09/14 12:38:02;;;;;;;2.10;1.70;;;26.90;51.80;;;;;;5022311;28;20033;-68
2023/09/14 12:40:31;;;;;;;2.65;1.67;;;26.90;51.80;;;;;;5033500;28;20084;-68
2023/09/14 12:43:03;;;;;;;2.22;1.70;;;26.90;51.80;;;;;;5021856;28;20547;-69
2023/09/14 12:45:33;;;;;;;2.15;1.77;;;26.90;51.80;;;;;;5020959;28;20033;-69
2023/09/14 12:48:04;;;;;;;2.47;1.75;;;26.90;51.70;;;;;;5021468;28;20053;-68